createdAt,value
2023-05-25T00:01:03.071Z,95.90
2023-05-25T00:03:32.159Z,96.10
2023-05-25T00:06:01.678Z,96.00
2023-05-25T00:08:29.354Z,96.20
2023-05-25T00:10:56.272Z,95.70
2023-05-25T00:13:23.061Z,96.00
2023-05-25T00:15:50.713Z,95.80
2023-05-25T00:18:18.498Z,96.40
2023-05-25T00:20:45.991Z,96.50
2023-05-25T00:23:12.898Z,96.30
2023-05-25T00:25:39.652Z,96.70
2023-05-25T00:28:07.965Z,96.80
2023-05-25T00:30:34.721Z,96.80
2023-05-25T00:33:01.856Z,96.70
2023-05-25T00:35:29.323Z,96.60
2023-05-25T00:37:56.345Z,96.90
2023-05-25T00:40:23.113Z,96.90
2023-05-25T00:42:51.474Z,96.80
2023-05-25T00:45:18.299Z,96.60
2023-05-25T00:47:46.801Z,96.80
2023-05-25T00:50:17.266Z,97.10
2023-05-25T00:52:44.194Z,96.70
2023-05-25T00:55:16.516Z,97.00
2023-05-25T00:57:46.068Z,97.20
2023-05-25T01:00:15.471Z,97.50
2023-05-25T01:02:45.265Z,97.60
2023-05-25T01:05:13.798Z,97.50
2023-05-25T01:07:43.883Z,97.80
2023-05-25T01:10:14.374Z,98.00
2023-05-25T01:12:43.444Z,98.20
2023-05-25T01:15:10.921Z,98.00
2023-05-25T01:17:38.672Z,98.10
2023-05-25T01:20:11.585Z,98.10
2023-05-25T01:23:01.765Z,97.80
2023-05-25T01:25:36.769Z,97.80
2023-05-25T01:28:11.485Z,97.90
2023-05-25T01:30:42.401Z,98.10
2023-05-25T01:33:10.992Z,98.30
2023-05-25T01:35:40.096Z,98.50
2023-05-25T01:38:08.340Z,98.40
2023-05-25T01:40:35.161Z,98.00
2023-05-25T01:43:01.897Z,98.50
2023-05-25T01:45:29.185Z,98.20
2023-05-25T01:48:12.983Z,98.50
2023-05-25T01:50:59.600Z,98.70
2023-05-25T01:53:40.605Z,98.60
2023-05-25T01:56:11.486Z,98.60
2023-05-25T01:58:47.008Z,98.80
2023-05-25T02:01:16.186Z,98.70
2023-05-25T02:03:44.892Z,98.80
2023-05-25T02:06:12.228Z,98.50
2023-05-25T02:08:39.006Z,99.00
2023-05-25T02:11:06.105Z,98.90
2023-05-25T02:13:32.842Z,99.00
2023-05-25T02:15:59.685Z,99.50
2023-05-25T02:18:26.501Z,99.80
2023-05-25T02:20:53.359Z,99.80
2023-05-25T02:23:20.078Z,99.60
2023-05-25T02:25:47.026Z,99.50
2023-05-25T02:28:15.190Z,99.60
2023-05-25T02:30:41.955Z,99.70
2023-05-25T02:33:08.837Z,99.40
2023-05-25T02:35:35.614Z,99.10
2023-05-25T02:38:02.337Z,99.80
2023-05-25T02:40:29.234Z,99.40
2023-05-25T02:42:55.947Z,99.20
2023-05-25T02:45:22.769Z,99.40
2023-05-25T02:47:49.571Z,99.50
2023-05-25T02:50:16.524Z,99.50
2023-05-25T02:52:43.325Z,99.70
2023-05-25T02:55:10.473Z,99.70
2023-05-25T02:57:38.939Z,99.60
2023-05-25T03:00:12.213Z,99.90
2023-05-25T03:02:39.413Z,99.90
2023-05-25T03:05:07.568Z,99.90
2023-05-25T03:07:34.704Z,99.90
2023-05-25T03:10:01.564Z,99.90
2023-05-25T03:12:28.417Z,99.90
2023-05-25T03:14:55.166Z,99.90
2023-05-25T03:17:22.415Z,99.90
2023-05-25T03:19:49.281Z,99.90
2023-05-25T03:22:16.252Z,99.90
2023-05-25T03:24:43.044Z,99.90
2023-05-25T03:27:09.739Z,99.90
2023-05-25T03:29:36.466Z,99.90
2023-05-25T03:32:03.312Z,99.90
2023-05-25T03:34:30.313Z,99.90
2023-05-25T03:36:57.099Z,99.90
2023-05-25T03:39:23.835Z,99.90
2023-05-25T03:41:51.661Z,99.90
2023-05-25T03:44:18.421Z,99.90
2023-05-25T03:46:45.305Z,99.90
2023-05-25T03:49:14.052Z,99.90
2023-05-25T03:51:43.137Z,99.90
2023-05-25T03:54:10.155Z,99.90
2023-05-25T03:56:37.133Z,99.90
2023-05-25T03:59:07.088Z,99.90
2023-05-25T04:01:33.845Z,99.90
2023-05-25T04:04:00.841Z,99.90
2023-05-25T04:06:30.122Z,99.90
2023-05-25T04:08:58.075Z,99.90
2023-05-25T04:11:28.114Z,99.90
2023-05-25T04:13:54.968Z,99.90
2023-05-25T04:16:21.989Z,99.90
2023-05-25T04:18:48.840Z,99.90
2023-05-25T04:21:16.657Z,99.90
2023-05-25T04:23:43.509Z,99.90
2023-05-25T04:26:10.954Z,99.90
2023-05-25T04:28:37.685Z,99.90
2023-05-25T04:31:05.392Z,99.90
2023-05-25T04:33:34.232Z,99.90
2023-05-25T04:36:01.219Z,99.90
2023-05-25T04:38:27.931Z,99.90
2023-05-25T04:40:54.965Z,99.90
2023-05-25T04:43:21.806Z,99.90
2023-05-25T04:45:48.638Z,99.90
2023-05-25T04:48:15.373Z,99.90
2023-05-25T04:50:42.840Z,99.90
2023-05-25T04:53:09.895Z,99.90
2023-05-25T04:55:36.657Z,99.90
2023-05-25T04:58:05.735Z,99.90
2023-05-25T05:00:34.761Z,99.90
2023-05-25T05:03:01.634Z,99.90
2023-05-25T05:05:28.535Z,99.90
2023-05-25T05:07:55.788Z,99.90
2023-05-25T05:10:22.622Z,99.90
2023-05-25T05:12:49.397Z,99.90
2023-05-25T05:15:16.419Z,99.90
2023-05-25T05:17:43.146Z,99.90
2023-05-25T05:20:10.338Z,99.90
2023-05-25T05:22:37.987Z,99.90
2023-05-25T05:25:05.556Z,99.90
2023-05-25T05:27:32.353Z,99.90
2023-05-25T05:29:59.116Z,99.90
2023-05-25T05:32:26.009Z,99.90
2023-05-25T05:34:54.837Z,99.90
2023-05-25T05:37:21.642Z,99.90
2023-05-25T05:39:48.441Z,99.90
2023-05-25T05:42:15.272Z,99.90
2023-05-25T05:44:42.020Z,99.90
2023-05-25T05:47:08.867Z,99.90
2023-05-25T05:49:37.877Z,99.90
2023-05-25T05:52:05.220Z,99.90
2023-05-25T05:54:32.100Z,99.90
2023-05-25T05:56:58.831Z,99.90
2023-05-25T05:59:25.843Z,99.90
2023-05-25T06:01:52.696Z,99.90
2023-05-25T06:04:19.579Z,99.90
2023-05-25T06:06:47.165Z,99.90
2023-05-25T06:09:14.465Z,99.90
2023-05-25T06:11:41.354Z,99.90
2023-05-25T06:14:08.110Z,99.90
2023-05-25T06:16:36.519Z,99.90
2023-05-25T06:19:03.384Z,99.90
2023-05-25T06:21:30.200Z,99.90
2023-05-25T06:23:59.711Z,99.90
2023-05-25T06:26:27.279Z,99.90
2023-05-25T06:28:54.357Z,99.90
2023-05-25T06:31:21.406Z,99.90
2023-05-25T06:33:48.408Z,99.90
2023-05-25T06:36:15.752Z,99.90
2023-05-25T06:38:44.816Z,99.90
2023-05-25T06:41:15.162Z,99.90
2023-05-25T06:43:47.220Z,99.90
2023-05-25T06:46:18.192Z,99.90
2023-05-25T06:48:46.190Z,99.90
2023-05-25T06:51:13.333Z,99.90
2023-05-25T06:53:40.131Z,99.90
2023-05-25T06:56:07.336Z,99.90
2023-05-25T06:58:34.101Z,99.90
2023-05-25T07:01:01.234Z,99.90
2023-05-25T07:03:28.080Z,99.90
2023-05-25T07:05:55.200Z,99.90
2023-05-25T07:08:22.088Z,99.90
2023-05-25T07:10:51.127Z,99.90
2023-05-25T07:13:17.865Z,99.90
2023-05-25T07:15:44.930Z,99.90
2023-05-25T07:18:12.714Z,99.90
2023-05-25T07:20:42.324Z,99.90
2023-05-25T07:23:10.664Z,99.90
2023-05-25T07:25:41.515Z,99.90
2023-05-25T07:28:08.817Z,99.90
2023-05-25T07:30:38.004Z,99.60
2023-05-25T07:33:04.794Z,99.80
2023-05-25T07:35:31.653Z,99.90
2023-05-25T07:37:59.612Z,99.90
2023-05-25T07:40:26.704Z,99.90
2023-05-25T07:42:53.981Z,99.90
2023-05-25T07:45:21.298Z,99.80
2023-05-25T07:47:48.380Z,99.90
2023-05-25T07:50:15.814Z,99.90
2023-05-25T07:52:42.770Z,99.70
2023-05-25T07:55:10.152Z,99.50
2023-05-25T07:57:37.083Z,99.40
2023-05-25T08:00:11.121Z,99.30
2023-05-25T08:02:38.073Z,99.20
2023-05-25T08:05:05.670Z,99.40
2023-05-25T08:07:35.835Z,99.10
2023-05-25T08:10:03.452Z,99.60
2023-05-25T08:12:47.087Z,99.30
2023-05-25T08:15:15.259Z,99.60
2023-05-25T08:17:42.268Z,99.50
2023-05-25T08:20:10.710Z,99.20
2023-05-25T08:22:37.503Z,99.30
2023-05-25T08:25:05.312Z,99.00
2023-05-25T08:27:35.467Z,99.20
2023-05-25T08:30:03.528Z,99.70
2023-05-25T08:32:30.274Z,99.50
2023-05-25T08:34:57.150Z,99.60
2023-05-25T08:37:26.351Z,99.30
2023-05-25T08:39:53.116Z,99.80
2023-05-25T08:42:21.105Z,99.50
2023-05-25T08:44:47.990Z,99.50
2023-05-25T08:47:16.854Z,99.30
2023-05-25T08:49:45.267Z,99.60
2023-05-25T08:52:15.113Z,99.60
2023-05-25T08:54:44.585Z,98.60
2023-05-25T08:57:21.209Z,99.20
2023-05-25T09:00:04.210Z,99.20
2023-05-25T09:02:40.387Z,99.00
2023-05-25T09:05:09.038Z,98.90
2023-05-25T09:07:36.010Z,98.90
2023-05-25T09:10:03.619Z,99.30
2023-05-25T09:12:31.528Z,99.50
2023-05-25T09:14:59.297Z,99.20
2023-05-25T09:17:26.839Z,98.70
2023-05-25T09:19:54.279Z,99.50
2023-05-25T09:22:21.136Z,99.50
2023-05-25T09:24:49.225Z,98.90
2023-05-25T09:27:20.300Z,98.40
2023-05-25T09:29:51.503Z,98.60
2023-05-25T09:32:18.917Z,98.50
2023-05-25T09:34:46.803Z,99.20
2023-05-25T09:37:19.489Z,98.70
2023-05-25T09:39:47.881Z,99.10
2023-05-25T09:42:14.831Z,98.40
2023-05-25T09:44:42.914Z,98.50
2023-05-25T09:47:09.973Z,98.60
2023-05-25T09:49:36.977Z,98.70
2023-05-25T09:52:04.002Z,98.80
2023-05-25T09:54:30.880Z,98.50
2023-05-25T09:56:57.643Z,98.50
2023-05-25T09:59:24.574Z,98.60
2023-05-25T10:01:53.511Z,98.60
2023-05-25T10:04:21.057Z,97.50
2023-05-25T10:06:51.533Z,98.40
2023-05-25T10:09:19.663Z,98.40
2023-05-25T10:11:47.652Z,98.00
2023-05-25T10:14:29.301Z,98.20
2023-05-25T10:16:59.281Z,98.20
2023-05-25T10:19:33.237Z,98.30
2023-05-25T10:22:08.888Z,98.30
2023-05-25T10:24:52.443Z,98.70
2023-05-25T10:27:27.611Z,98.40
2023-05-25T10:29:57.069Z,98.30
2023-05-25T10:32:24.890Z,97.90
2023-05-25T10:34:53.378Z,97.80
2023-05-25T10:37:20.767Z,97.70
2023-05-25T10:39:49.944Z,98.00
2023-05-25T10:42:18.737Z,98.30
2023-05-25T10:44:46.543Z,98.10
2023-05-25T10:47:14.988Z,98.10
2023-05-25T10:50:26.871Z,97.30
2023-05-25T10:53:01.495Z,97.60
2023-05-25T10:55:32.725Z,98.00
2023-05-25T10:58:14.128Z,97.90
2023-05-25T11:00:41.571Z,97.10
2023-05-25T11:03:08.969Z,98.00
2023-05-25T11:05:38.342Z,97.10
2023-05-25T11:08:08.579Z,97.90
2023-05-25T11:10:50.934Z,98.50
2023-05-25T11:13:40.958Z,97.40
2023-05-25T11:16:15.449Z,97.10
2023-05-25T11:18:43.595Z,96.90
2023-05-25T11:21:18.855Z,97.00
2023-05-25T11:24:12.944Z,98.30
2023-05-25T11:26:54.767Z,97.00
2023-05-25T11:29:24.762Z,97.90
2023-05-25T11:31:56.582Z,97.20
2023-05-25T11:34:25.140Z,97.30
2023-05-25T11:36:57.837Z,97.30
2023-05-25T11:39:24.660Z,97.20
2023-05-25T11:41:57.070Z,97.00
2023-05-25T11:44:29.503Z,97.20
2023-05-25T11:46:57.774Z,97.40
2023-05-25T11:49:28.118Z,97.20
2023-05-25T11:51:57.075Z,96.60
2023-05-25T11:54:28.579Z,97.20
2023-05-25T11:56:59.367Z,97.10
2023-05-25T11:59:29.640Z,96.30
2023-05-25T12:02:02.495Z,96.30
2023-05-25T12:04:30.815Z,96.50
2023-05-25T12:07:07.987Z,96.10
2023-05-25T12:09:36.906Z,96.20
2023-05-25T12:12:04.501Z,96.80
2023-05-25T12:14:33.050Z,96.80
2023-05-25T12:17:00.325Z,96.50
2023-05-25T12:19:29.828Z,95.90
2023-05-25T12:21:56.999Z,97.00
2023-05-25T12:24:25.101Z,96.30
2023-05-25T12:27:01.859Z,96.40
2023-05-25T12:29:29.413Z,97.90
2023-05-25T12:32:06.841Z,95.80
2023-05-25T12:34:34.664Z,96.70
2023-05-25T12:37:01.818Z,96.20
2023-05-25T12:39:31.390Z,96.10
2023-05-25T12:42:00.120Z,96.60
2023-05-25T12:44:37.314Z,96.20
2023-05-25T12:47:19.962Z,95.80
2023-05-25T12:49:48.607Z,97.20
2023-05-25T12:52:35.505Z,95.80
2023-05-25T12:55:27.398Z,95.60
2023-05-25T12:57:58.263Z,96.00
2023-05-25T13:00:27.484Z,95.70
2023-05-25T13:02:54.655Z,95.40
2023-05-25T13:05:26.176Z,95.30
2023-05-25T13:07:57.827Z,95.40
2023-05-25T13:10:25.207Z,95.20
2023-05-25T13:12:56.129Z,95.80
2023-05-25T13:15:23.249Z,95.10
2023-05-25T13:17:52.669Z,94.90
2023-05-25T13:20:22.567Z,95.00
2023-05-25T13:22:51.261Z,95.20
2023-05-25T13:25:18.543Z,95.50
2023-05-25T13:27:50.801Z,95.30
2023-05-25T13:30:21.465Z,94.00
2023-05-25T13:32:51.143Z,95.00
2023-05-25T13:35:23.204Z,94.50
2023-05-25T13:37:51.142Z,94.30
2023-05-25T13:40:18.308Z,94.30
2023-05-25T13:42:45.165Z,94.80
2023-05-25T13:45:11.939Z,94.20
2023-05-25T13:47:38.847Z,95.50
2023-05-25T13:50:06.294Z,94.40
2023-05-25T13:52:33.425Z,93.70
2023-05-25T13:55:00.219Z,93.80
2023-05-25T13:57:27.232Z,93.50
2023-05-25T13:59:56.476Z,94.30
2023-05-25T14:02:23.661Z,94.00
2023-05-25T14:04:50.522Z,93.40
2023-05-25T14:07:17.336Z,94.00
2023-05-25T14:09:44.114Z,93.60
2023-05-25T14:12:13.018Z,94.40
2023-05-25T14:14:41.060Z,93.80
2023-05-25T14:17:07.825Z,93.40
2023-05-25T14:19:37.742Z,93.70
2023-05-25T14:22:13.469Z,93.00
2023-05-25T14:24:41.540Z,93.30
2023-05-25T14:27:08.407Z,93.20
2023-05-25T14:29:35.462Z,93.60
2023-05-25T14:32:02.377Z,93.10
2023-05-25T14:34:29.617Z,93.90
2023-05-25T14:36:56.504Z,93.90
2023-05-25T14:39:23.254Z,93.40
2023-05-25T14:41:50.017Z,93.20
2023-05-25T14:44:16.916Z,93.50
2023-05-25T14:46:43.856Z,93.80
2023-05-25T14:49:10.693Z,93.50
2023-05-25T14:51:38.084Z,94.00
2023-05-25T14:54:07.280Z,92.50
2023-05-25T14:56:34.474Z,92.60
2023-05-25T14:59:01.251Z,92.50
2023-05-25T15:01:29.422Z,92.50
2023-05-25T15:03:56.699Z,92.80
2023-05-25T15:06:23.661Z,92.60
2023-05-25T15:08:50.553Z,93.90
2023-05-25T15:11:18.173Z,93.00
2023-05-25T15:13:45.156Z,92.90
2023-05-25T15:16:13.108Z,93.50
2023-05-25T15:18:39.901Z,92.80
2023-05-25T15:21:06.903Z,93.50
2023-05-25T15:23:33.696Z,93.10
2023-05-25T15:26:08.201Z,92.30
2023-05-25T15:28:35.117Z,93.50
2023-05-25T15:31:03.170Z,92.70
2023-05-25T15:33:47.192Z,92.70
2023-05-25T15:36:16.728Z,93.00
2023-05-25T15:38:44.509Z,93.10
2023-05-25T15:41:15.510Z,92.40
2023-05-25T15:43:42.305Z,93.80
2023-05-25T15:46:09.101Z,92.70
2023-05-25T15:48:35.944Z,92.60
2023-05-25T15:51:02.826Z,92.60
2023-05-25T15:53:30.427Z,92.90
2023-05-25T15:55:57.403Z,93.20
2023-05-25T15:58:24.219Z,92.90
2023-05-25T16:00:50.978Z,92.50
2023-05-25T16:03:17.798Z,93.60
2023-05-25T16:05:44.811Z,92.60
2023-05-25T16:08:13.980Z,92.80
2023-05-25T16:10:40.750Z,93.30
2023-05-25T16:13:07.542Z,92.80
2023-05-25T16:15:34.322Z,92.90
2023-05-25T16:18:01.343Z,93.20
2023-05-25T16:20:28.200Z,93.00
2023-05-25T16:22:54.957Z,93.60
2023-05-25T16:25:21.756Z,93.80
2023-05-25T16:27:48.495Z,93.40
2023-05-25T16:30:15.374Z,93.50
2023-05-25T16:32:42.237Z,93.10
2023-05-25T16:35:09.141Z,93.40
2023-05-25T16:37:35.889Z,93.80
2023-05-25T16:40:02.680Z,93.10
2023-05-25T16:42:29.388Z,93.30
2023-05-25T16:44:56.205Z,93.90
2023-05-25T16:47:22.963Z,93.80
2023-05-25T16:49:49.691Z,93.60
2023-05-25T16:52:16.432Z,93.50
2023-05-25T16:54:43.286Z,94.40
2023-05-25T16:57:12.036Z,94.00
2023-05-25T16:59:42.417Z,93.20
2023-05-25T17:02:11.138Z,93.90
2023-05-25T17:04:37.860Z,93.50
2023-05-25T17:07:04.680Z,94.10
2023-05-25T17:09:36.167Z,93.90
2023-05-25T17:12:03.728Z,94.00
2023-05-25T17:14:31.080Z,93.90
2023-05-25T17:16:59.853Z,94.40
2023-05-25T17:19:26.900Z,94.00
2023-05-25T17:21:53.704Z,94.30
2023-05-25T17:24:28.000Z,94.20
2023-05-25T17:26:57.937Z,94.10
2023-05-25T17:29:24.645Z,93.90
2023-05-25T17:31:51.575Z,93.80
2023-05-25T17:34:18.329Z,94.10
2023-05-25T17:36:48.103Z,94.10
2023-05-25T17:39:14.828Z,94.10
2023-05-25T17:41:41.670Z,94.60
2023-05-25T17:44:08.357Z,94.90
2023-05-25T17:46:35.164Z,95.10
2023-05-25T17:49:02.091Z,95.20
2023-05-25T17:51:28.824Z,94.70
2023-05-25T17:53:55.920Z,95.20
2023-05-25T17:56:23.082Z,94.80
2023-05-25T17:58:49.865Z,94.90
2023-05-25T18:01:16.822Z,95.00
2023-05-25T18:03:43.741Z,95.20
2023-05-25T18:06:10.571Z,95.00
2023-05-25T18:08:37.263Z,95.10
2023-05-25T18:11:04.158Z,95.10
2023-05-25T18:13:30.898Z,95.30
2023-05-25T18:15:57.645Z,95.30
2023-05-25T18:18:24.918Z,95.60
2023-05-25T18:20:51.811Z,95.70
2023-05-25T18:23:18.726Z,95.60
2023-05-25T18:25:45.965Z,95.50
2023-05-25T18:28:15.094Z,95.80
2023-05-25T18:30:45.127Z,95.80
2023-05-25T18:33:12.588Z,95.90
2023-05-25T18:35:39.962Z,95.90
2023-05-25T18:38:07.039Z,96.40
2023-05-25T18:40:33.757Z,96.10
2023-05-25T18:43:00.539Z,96.30
2023-05-25T18:45:27.482Z,96.60
2023-05-25T18:47:54.312Z,96.50
2023-05-25T18:50:21.430Z,96.40
2023-05-25T18:52:51.140Z,96.30
2023-05-25T18:55:19.045Z,96.40
2023-05-25T18:57:46.568Z,96.60
2023-05-25T19:00:13.974Z,96.60
2023-05-25T19:02:42.008Z,96.70
2023-05-25T19:05:11.642Z,96.80
2023-05-25T19:07:51.049Z,96.80
2023-05-25T19:10:25.139Z,96.80
2023-05-25T19:12:52.008Z,96.80
2023-05-25T19:15:18.876Z,97.00
2023-05-25T19:17:46.705Z,97.00
2023-05-25T19:20:13.774Z,97.10
2023-05-25T19:22:41.831Z,97.40
2023-05-25T19:25:08.766Z,97.40
2023-05-25T19:27:35.530Z,97.50
2023-05-25T19:30:02.437Z,97.30
2023-05-25T19:32:29.218Z,97.30
2023-05-25T19:34:56.367Z,97.00
2023-05-25T19:37:23.163Z,97.10
2023-05-25T19:39:49.966Z,97.10
2023-05-25T19:42:17.838Z,97.00
2023-05-25T19:44:45.899Z,96.90
2023-05-25T19:47:12.855Z,97.10
2023-05-25T19:49:39.670Z,96.80
2023-05-25T19:52:06.475Z,96.60
2023-05-25T19:54:33.150Z,96.80
2023-05-25T19:57:00.861Z,96.80
2023-05-25T19:59:30.524Z,96.60
2023-05-25T20:01:57.232Z,96.50
2023-05-25T20:04:24.396Z,96.50
2023-05-25T20:06:51.919Z,96.70
2023-05-25T20:09:19.044Z,96.70
2023-05-25T20:11:45.813Z,96.70
2023-05-25T20:14:12.509Z,96.80
2023-05-25T20:16:39.226Z,96.80
2023-05-25T20:19:07.825Z,96.80
2023-05-25T20:21:35.615Z,96.90
2023-05-25T20:24:02.709Z,97.10
2023-05-25T20:26:29.464Z,97.30
2023-05-25T20:28:56.254Z,97.10
2023-05-25T20:31:24.324Z,97.20
2023-05-25T20:33:51.251Z,97.20
2023-05-25T20:36:18.011Z,97.40
2023-05-25T20:38:45.449Z,97.20
2023-05-25T20:41:12.527Z,97.30
2023-05-25T20:43:39.418Z,97.50
2023-05-25T20:46:08.587Z,97.60
2023-05-25T20:48:36.451Z,97.80
2023-05-25T20:51:03.151Z,97.80
2023-05-25T20:53:30.114Z,97.90
2023-05-25T20:56:01.986Z,98.00
2023-05-25T20:58:28.688Z,98.20
2023-05-25T21:00:55.532Z,98.40
2023-05-25T21:03:22.302Z,98.70
2023-05-25T21:05:49.180Z,98.40
2023-05-25T21:08:15.855Z,98.40
2023-05-25T21:10:42.572Z,98.60
2023-05-25T21:13:09.305Z,98.40
2023-05-25T21:15:36.125Z,98.50
2023-05-25T21:18:03.610Z,98.60
2023-05-25T21:20:30.816Z,98.60
2023-05-25T21:22:57.620Z,98.80
2023-05-25T21:25:24.343Z,98.90
2023-05-25T21:27:51.027Z,98.90
2023-05-25T21:30:19.456Z,99.10
2023-05-25T21:32:47.171Z,99.10
2023-05-25T21:35:16.046Z,99.00
2023-05-25T21:37:42.825Z,99.00
2023-05-25T21:40:09.977Z,99.00
2023-05-25T21:42:36.746Z,99.00
2023-05-25T21:45:03.750Z,98.90
2023-05-25T21:47:30.549Z,98.90
2023-05-25T21:49:57.331Z,99.10
2023-05-25T21:52:24.345Z,99.20
2023-05-25T21:54:51.115Z,99.40
2023-05-25T21:57:17.894Z,99.50
2023-05-25T21:59:44.648Z,99.60
2023-05-25T22:02:11.626Z,99.60
2023-05-25T22:04:38.458Z,99.70
2023-05-25T22:07:05.300Z,99.80
2023-05-25T22:09:32.070Z,99.60
2023-05-25T22:11:58.760Z,99.60
2023-05-25T22:14:25.515Z,99.90
2023-05-25T22:16:52.267Z,99.90
2023-05-25T22:19:19.139Z,99.90
2023-05-25T22:21:46.092Z,99.90
2023-05-25T22:24:12.896Z,99.90
2023-05-25T22:26:39.838Z,99.90
2023-05-25T22:29:06.830Z,99.90
2023-05-25T22:31:33.703Z,99.90
2023-05-25T22:34:00.514Z,99.90
2023-05-25T22:36:27.235Z,99.90
2023-05-25T22:38:53.970Z,99.90
2023-05-25T22:41:20.643Z,99.90
2023-05-25T22:43:47.423Z,99.90
2023-05-25T22:46:14.204Z,99.90
2023-05-25T22:48:41.077Z,99.90
2023-05-25T22:51:07.928Z,99.90
2023-05-25T22:53:34.646Z,99.90
2023-05-25T22:56:01.361Z,99.90
2023-05-25T22:58:28.072Z,99.90
2023-05-25T23:00:56.586Z,99.90
2023-05-25T23:03:23.372Z,99.90
2023-05-25T23:05:52.382Z,99.90
2023-05-25T23:08:19.037Z,99.90
2023-05-25T23:10:45.814Z,99.90
2023-05-25T23:13:14.847Z,99.90
2023-05-25T23:15:44.868Z,99.90
2023-05-25T23:18:11.914Z,99.90
2023-05-25T23:20:38.734Z,99.90
2023-05-25T23:23:05.489Z,99.90
2023-05-25T23:25:32.293Z,99.90
2023-05-25T23:27:59.007Z,99.90
2023-05-25T23:30:25.732Z,99.90
2023-05-25T23:32:52.508Z,99.90
2023-05-25T23:35:19.391Z,99.90
2023-05-25T23:37:46.133Z,99.90
2023-05-25T23:40:13.312Z,99.90
2023-05-25T23:42:43.023Z,99.90
2023-05-25T23:45:10.241Z,99.90
2023-05-25T23:47:37.030Z,99.90
2023-05-25T23:50:04.229Z,99.90
2023-05-25T23:52:31.013Z,99.90
2023-05-25T23:54:57.695Z,99.90
2023-05-25T23:57:24.384Z,99.90
2023-05-25T23:59:51.331Z,99.90
